createdAt,value
2018-12-20T06:39:16.930Z,17.55
2018-12-20T06:42:04.697Z,27.60
2018-12-20T06:44:33.499Z,29.82
2018-12-20T06:47:07.570Z,22.10
2018-12-20T06:49:37.299Z,21.75
2018-12-20T06:52:11.323Z,22.60
2018-12-20T06:54:44.455Z,32.40
2018-12-20T06:57:17.674Z,24.10
2018-12-20T06:59:46.382Z,27.65
2018-12-20T07:02:21.954Z,21.27
2018-12-20T07:04:53.918Z,25.92
2018-12-20T07:07:23.682Z,24.43
2018-12-20T07:09:55.748Z,28.67
2018-12-20T07:12:25.502Z,21.45
2018-12-20T07:14:54.298Z,24.25
2018-12-20T07:17:24.051Z,25.23
2018-12-20T07:19:53.735Z,29.37
2018-12-20T07:22:22.556Z,23.22
2018-12-20T07:24:52.335Z,21.62
2018-12-20T07:27:21.143Z,33.15
2018-12-20T07:29:49.951Z,24.10
2018-12-20T07:32:29.080Z,25.82
2018-12-20T07:35:06.746Z,29.55
2018-12-20T07:37:39.103Z,31.87
2018-12-20T07:40:12.235Z,30.17
2018-12-20T07:42:47.072Z,37.70
2018-12-20T07:45:22.852Z,31.05
2018-12-20T07:47:57.212Z,26.12
2018-12-20T07:50:27.024Z,26.87
2018-12-20T07:52:56.783Z,29.25
2018-12-20T07:55:33.992Z,32.00
2018-12-20T07:58:03.918Z,33.18
2018-12-20T08:00:45.942Z,32.25
2018-12-20T08:03:18.847Z,39.10
2018-12-20T08:05:49.451Z,38.65
2018-12-20T08:08:20.183Z,31.75
2018-12-20T08:10:49.999Z,35.05
2018-12-20T08:13:18.961Z,38.95
2018-12-20T08:15:47.835Z,42.48
2018-12-20T08:18:17.575Z,34.78
2018-12-20T08:20:47.491Z,33.25
2018-12-20T08:23:17.219Z,33.92
2018-12-20T08:25:47.878Z,43.35
2018-12-20T08:28:16.743Z,39.50
2018-12-20T08:30:46.466Z,50.45
2018-12-20T08:33:15.231Z,35.40
2018-12-20T08:35:48.135Z,37.60
2018-12-20T08:38:17.000Z,42.93
2018-12-20T08:43:07.472Z,44.03
2018-12-20T08:45:39.979Z,44.08
2018-12-20T08:48:12.739Z,42.45
2018-12-20T08:50:47.271Z,55.35
2018-12-20T08:53:21.351Z,43.95
2018-12-20T08:55:52.135Z,41.40
2018-12-20T08:58:30.604Z,50.17
2018-12-20T09:01:00.443Z,47.20
2018-12-20T09:03:30.139Z,55.10
2018-12-20T09:06:02.185Z,55.10
2018-12-20T09:08:31.025Z,41.95
2018-12-20T09:10:59.879Z,45.00
2018-12-20T09:13:30.567Z,53.73
2018-12-20T09:16:07.803Z,45.15
2018-12-20T09:18:46.607Z,52.17
2018-12-20T09:21:16.394Z,46.70
2018-12-20T09:23:59.879Z,49.80
2018-12-20T09:26:49.175Z,47.45
2018-12-20T09:29:18.023Z,47.62
2018-12-20T09:31:46.855Z,47.17
2018-12-20T09:34:20.171Z,35.15
2018-12-20T09:36:49.920Z,47.88
2018-12-20T09:39:22.135Z,40.52
2018-12-20T09:41:50.872Z,41.55
2018-12-20T09:44:25.022Z,38.45
2018-12-20T09:46:57.748Z,38.55
2018-12-20T09:49:34.824Z,40.08
2018-12-20T09:52:04.720Z,40.80
2018-12-20T09:54:37.456Z,38.38
2018-12-20T09:57:06.568Z,40.28
2018-12-20T09:59:39.261Z,37.25
2018-12-20T10:02:11.400Z,39.88
2018-12-20T10:04:40.192Z,32.40
2018-12-20T10:07:09.948Z,33.88
2018-12-20T10:09:47.296Z,39.60
2018-12-20T10:12:18.112Z,29.92
2018-12-20T10:14:46.920Z,29.77
2018-12-20T10:17:20.001Z,30.08
2018-12-20T10:19:48.364Z,28.20
2018-12-20T10:22:21.968Z,27.85
2018-12-20T10:25:11.724Z,35.60
2018-12-20T10:27:42.476Z,29.32
2018-12-20T10:30:12.320Z,33.33
2018-12-20T10:32:43.023Z,32.23
2018-12-20T10:35:14.939Z,28.30
2018-12-20T10:37:47.052Z,35.75
2018-12-20T10:40:17.828Z,32.53
2018-12-20T10:42:46.692Z,33.13
2018-12-20T10:45:17.516Z,28.00
2018-12-20T10:47:46.334Z,28.23
2018-12-20T10:50:22.540Z,31.95
2018-12-20T10:52:52.352Z,30.30
2018-12-20T10:55:21.240Z,27.32
2018-12-20T10:57:54.336Z,22.47
2018-12-20T11:00:31.964Z,23.15
2018-12-20T11:03:06.512Z,48.28
2018-12-20T11:05:43.076Z,26.17
2018-12-20T11:08:17.623Z,29.32
2018-12-20T11:10:46.356Z,24.32
2018-12-20T11:13:22.011Z,20.57
2018-12-20T11:15:53.796Z,29.77
2018-12-20T11:18:22.743Z,23.10
2018-12-20T11:20:52.488Z,27.27
2018-12-20T11:23:22.263Z,36.58
2018-12-20T11:25:53.009Z,28.43
2018-12-20T11:28:39.504Z,28.03
2018-12-20T11:31:08.307Z,24.50
2018-12-20T11:33:39.148Z,25.00
2018-12-20T11:36:12.859Z,23.63
2018-12-20T11:38:54.596Z,20.63
2018-12-20T11:41:24.384Z,18.43
2018-12-20T11:44:05.320Z,20.87
2018-12-20T11:46:39.011Z,18.20
2018-12-20T11:49:12.628Z,20.00
2018-12-20T11:51:49.320Z,18.27
2018-12-20T11:54:24.336Z,18.23
2018-12-20T11:57:05.891Z,22.37
2018-12-20T11:59:39.372Z,20.48
2018-12-20T12:02:08.204Z,19.52
2018-12-20T12:04:39.947Z,17.60
2018-12-20T12:07:09.736Z,22.80
2018-12-20T12:09:38.465Z,20.93
2018-12-20T12:12:11.177Z,24.93
2018-12-20T12:14:47.488Z,24.67
2018-12-20T12:17:24.076Z,15.00
2018-12-20T12:19:56.204Z,13.53
2018-12-20T12:22:25.078Z,17.13
2018-12-20T12:24:55.888Z,15.00
2018-12-20T12:27:24.756Z,14.77
2018-12-20T12:29:57.684Z,15.60
2018-12-20T12:32:32.060Z,15.07
2018-12-20T12:35:00.880Z,16.15
2018-12-20T12:37:46.344Z,13.70
2018-12-20T12:40:18.765Z,11.97
2018-12-20T12:42:47.902Z,14.83
2018-12-20T12:45:22.148Z,12.73
2018-12-20T12:48:03.265Z,17.80
2018-12-20T12:50:28.248Z,13.80
2018-12-20T12:52:59.026Z,14.55
2018-12-20T12:55:35.584Z,17.17
2018-12-20T12:58:05.157Z,9.65
2018-12-20T13:00:46.484Z,14.38
2018-12-20T13:03:15.293Z,14.35
2018-12-20T13:05:54.392Z,13.05
2018-12-20T13:08:55.868Z,14.00
2018-12-20T13:11:32.644Z,15.50
2018-12-20T13:14:04.713Z,13.68
2018-12-20T13:16:34.660Z,13.30
2018-12-20T13:19:10.032Z,12.55
2018-12-20T13:21:39.764Z,15.13
2018-12-20T13:24:10.552Z,13.50
2018-12-20T13:26:39.348Z,18.92
2018-12-20T13:29:08.148Z,18.12
2018-12-20T13:31:38.916Z,16.32
2018-12-20T13:34:08.737Z,15.28
2018-12-20T13:36:42.580Z,14.35
2018-12-20T13:39:11.436Z,14.03
2018-12-20T13:41:45.684Z,13.10
2018-12-20T13:44:20.912Z,16.05
2018-12-20T13:46:49.629Z,13.40
2018-12-20T13:49:18.501Z,11.22
2018-12-20T13:51:48.251Z,15.60
2018-12-20T13:54:18.028Z,12.68
2018-12-20T13:57:04.372Z,13.88
2018-12-20T13:59:38.117Z,12.15
2018-12-20T14:02:08.844Z,13.60
2018-12-20T14:04:37.698Z,16.10
2018-12-20T14:07:10.812Z,20.90
2018-12-20T14:09:46.188Z,23.15
2018-12-20T14:12:27.001Z,24.25
2018-12-20T14:15:09.268Z,29.15
2018-12-20T14:17:57.100Z,26.27
2018-12-20T14:20:30.264Z,23.80
2018-12-20T14:23:05.033Z,22.20
2018-12-20T14:25:34.765Z,16.52
2018-12-20T14:28:05.588Z,18.57
2018-12-20T14:30:34.396Z,14.43
2018-12-20T14:33:09.632Z,15.48
2018-12-20T14:35:59.745Z,13.53
2018-12-20T14:38:30.529Z,14.65
2018-12-20T14:40:59.370Z,12.47
2018-12-20T14:43:28.208Z,10.72
2018-12-20T14:46:01.100Z,12.28
2018-12-20T14:48:39.261Z,11.33
2018-12-20T14:51:06.339Z,11.65
2018-12-20T14:56:34.641Z,10.53
2018-12-20T14:59:03.387Z,10.88
2018-12-20T15:01:32.260Z,8.73
2018-12-20T15:04:01.093Z,7.03
2018-12-20T15:06:35.072Z,9.63
2018-12-20T15:09:06.353Z,6.90
2018-12-20T15:11:36.065Z,8.78
2018-12-20T15:14:04.848Z,7.40
2018-12-20T15:16:34.572Z,11.90
2018-12-20T15:19:09.248Z,9.20
2018-12-20T15:21:40.117Z,8.70
2018-12-20T15:24:14.704Z,8.08
2018-12-20T15:26:57.628Z,7.25
2018-12-20T15:29:37.996Z,7.62
2018-12-20T15:32:09.965Z,7.58
2018-12-20T15:34:39.792Z,5.20
2018-12-20T15:37:09.612Z,10.78
2018-12-20T15:39:40.408Z,5.22
2018-12-20T15:42:32.828Z,8.15
2018-12-20T15:45:16.812Z,11.60
2018-12-20T15:47:49.060Z,5.60
2018-12-20T15:50:23.804Z,4.55
2018-12-20T15:53:11.379Z,6.92
2018-12-20T15:55:46.656Z,6.40
2018-12-20T15:58:23.020Z,9.65
2018-12-20T16:00:56.292Z,5.45
2018-12-20T16:03:28.392Z,7.25
2018-12-20T16:05:58.257Z,7.10
2018-12-20T16:11:33.626Z,5.97
2018-12-20T16:14:09.505Z,5.42
2018-12-20T16:16:47.796Z,7.60
2018-12-20T16:19:18.452Z,4.87
2018-12-20T16:21:53.538Z,18.20
2018-12-20T16:24:22.380Z,7.47
2018-12-20T16:27:07.980Z,5.35
2018-12-20T16:29:36.868Z,11.05
2018-12-20T16:32:06.600Z,9.18
2018-12-20T16:34:48.980Z,6.12
2018-12-20T16:37:26.492Z,7.62
2018-12-20T16:40:03.503Z,7.17
2018-12-20T16:42:51.464Z,13.03
2018-12-20T16:45:24.064Z,10.60
2018-12-20T16:47:53.792Z,11.20
2018-12-20T16:50:23.476Z,8.28
2018-12-20T16:52:59.780Z,15.90
2018-12-20T16:55:32.647Z,23.90
2018-12-20T16:58:08.853Z,11.78
2018-12-20T17:00:37.680Z,8.83
2018-12-20T17:03:06.600Z,5.83
2018-12-20T17:05:35.460Z,12.80
2018-12-20T17:08:18.686Z,8.28
2018-12-20T17:10:48.387Z,9.65
2018-12-20T17:13:19.112Z,9.35
2018-12-20T17:15:55.516Z,10.55
2018-12-20T17:18:27.376Z,7.40
2018-12-20T17:20:56.160Z,9.75
2018-12-20T17:23:25.960Z,14.38
2018-12-20T17:25:56.736Z,13.32
2018-12-20T17:28:30.980Z,13.72
2018-12-20T17:31:03.708Z,6.37
2018-12-20T17:33:47.621Z,5.90
2018-12-20T17:36:17.367Z,9.43
2018-12-20T17:38:51.879Z,12.00
2018-12-20T17:41:29.372Z,11.18
2018-12-20T17:43:58.120Z,8.50
2018-12-20T17:49:30.473Z,6.60
2018-12-20T17:51:54.216Z,6.12
2018-12-20T17:54:35.008Z,9.60
2018-12-20T17:57:09.221Z,10.58
2018-12-20T17:59:38.069Z,5.45
2018-12-20T18:02:06.896Z,10.55
2018-12-20T18:04:36.747Z,11.00
2018-12-20T18:07:06.468Z,8.80
2018-12-20T18:09:35.288Z,14.83
2018-12-20T18:12:04.224Z,9.18
2018-12-20T18:14:33.060Z,10.93
2018-12-20T18:17:05.392Z,12.47
2018-12-20T18:19:40.516Z,14.55
2018-12-20T18:22:10.292Z,9.98
2018-12-20T18:24:40.273Z,8.80
2018-12-20T18:27:09.091Z,7.33
2018-12-20T18:29:43.052Z,8.23
2018-12-20T18:32:16.680Z,22.93
2018-12-20T18:34:45.473Z,8.35
2018-12-20T18:37:14.360Z,5.75
2018-12-20T18:39:43.056Z,6.97
2018-12-20T18:42:11.796Z,6.80
2018-12-20T18:44:40.644Z,10.58
2018-12-20T18:47:10.452Z,10.40
2018-12-20T18:49:47.316Z,10.38
2018-12-20T18:52:09.940Z,3.75
2018-12-20T18:54:46.617Z,15.45
2018-12-20T18:57:21.016Z,3.90
2018-12-20T18:59:50.737Z,3.83
2018-12-20T19:02:19.652Z,4.03
2018-12-20T19:04:49.453Z,9.05
2018-12-20T19:07:23.412Z,5.00
2018-12-20T19:09:53.140Z,5.20
2018-12-20T19:12:22.856Z,6.58
2018-12-20T19:14:52.600Z,3.45
2018-12-20T19:17:24.720Z,4.35
2018-12-20T19:20:15.793Z,5.30
2018-12-20T19:22:47.100Z,4.58
2018-12-20T19:25:19.816Z,4.72
2018-12-20T19:27:48.637Z,6.58
2018-12-20T19:30:17.606Z,3.12
2018-12-20T19:32:47.312Z,3.27
2018-12-20T19:35:17.112Z,5.30
2018-12-20T19:37:45.929Z,5.83
2018-12-20T19:40:18.805Z,4.40
2018-12-20T19:42:47.529Z,6.35
2018-12-20T19:45:16.385Z,11.43
2018-12-20T19:47:52.245Z,3.95
2018-12-20T19:50:21.933Z,6.65
2018-12-20T19:52:56.545Z,8.33
2018-12-20T19:58:03.885Z,8.00
2018-12-20T20:00:32.833Z,3.22
2018-12-20T20:03:08.581Z,6.10
2018-12-20T20:05:41.341Z,5.75
2018-12-20T20:08:10.100Z,3.92
2018-12-20T20:10:38.897Z,6.22
2018-12-20T20:13:08.665Z,7.10
2018-12-20T20:15:41.190Z,3.72
2018-12-20T20:18:27.949Z,5.75
2018-12-20T20:21:05.297Z,3.70
2018-12-20T20:23:36.046Z,3.77
2018-12-20T20:26:06.805Z,4.05
2018-12-20T20:28:36.717Z,3.15
2018-12-20T20:31:11.110Z,5.28
2018-12-20T20:33:43.914Z,3.45
2018-12-20T20:36:15.630Z,3.83
2018-12-20T20:38:44.501Z,4.35
2018-12-20T20:41:13.401Z,7.55
2018-12-20T20:43:46.711Z,6.20
2018-12-20T20:46:15.530Z,3.08
2018-12-20T20:48:47.470Z,6.87
2018-12-20T20:51:16.210Z,3.60
2018-12-20T20:54:05.001Z,3.50
2018-12-20T20:56:38.850Z,8.75
2018-12-20T20:59:07.702Z,10.48
2018-12-20T21:01:37.565Z,3.47
2018-12-20T21:04:08.442Z,6.97
2018-12-20T21:06:46.962Z,5.30
2018-12-20T21:09:13.538Z,2.80
2018-12-20T21:11:43.218Z,4.92
2018-12-20T21:14:17.806Z,6.08
2018-12-20T21:16:47.649Z,5.50
2018-12-20T21:19:20.181Z,8.75
2018-12-20T21:21:50.010Z,3.17
2018-12-20T21:24:18.898Z,8.35
2018-12-20T21:26:51.319Z,3.00
2018-12-20T21:29:22.122Z,6.72
2018-12-20T21:31:57.950Z,8.35
2018-12-20T21:34:26.742Z,3.75
2018-12-20T21:36:57.526Z,3.08
2018-12-20T21:39:27.337Z,8.43
2018-12-20T21:41:56.062Z,3.40
2018-12-20T21:44:26.738Z,5.47
2018-12-20T21:46:59.386Z,3.47
2018-12-20T21:49:33.191Z,3.00
2018-12-20T21:52:01.990Z,3.25
2018-12-20T21:54:34.478Z,2.60
2018-12-20T21:57:11.386Z,3.92
2018-12-20T21:59:47.382Z,4.53
2018-12-20T22:02:17.130Z,3.58
2018-12-20T22:04:50.677Z,4.50
2018-12-20T22:07:19.490Z,5.75
2018-12-20T22:09:50.221Z,4.30
2018-12-20T22:12:25.299Z,3.17
2018-12-20T22:14:57.236Z,6.03
2018-12-20T22:17:27.970Z,4.72
2018-12-20T22:19:58.709Z,3.00
2018-12-20T22:22:27.576Z,2.85
2018-12-20T22:25:02.722Z,4.30
2018-12-20T22:27:32.526Z,3.52
2018-12-20T22:30:07.701Z,3.55
2018-12-20T22:32:37.396Z,4.37
2018-12-20T22:35:06.262Z,5.50
2018-12-20T22:37:36.098Z,6.08
2018-12-20T22:40:07.118Z,8.25
2018-12-20T22:42:45.702Z,4.62
2018-12-20T22:45:14.506Z,2.80
2018-12-20T22:47:44.214Z,2.75
2018-12-20T22:50:15.098Z,6.45
2018-12-20T22:52:44.879Z,2.27
2018-12-20T22:55:14.786Z,2.87
2018-12-20T22:57:44.525Z,4.78
2018-12-20T23:00:18.290Z,7.50
2018-12-20T23:03:04.457Z,3.30
2018-12-20T23:05:33.253Z,3.58
2018-12-20T23:08:05.254Z,3.65
2018-12-20T23:10:36.041Z,2.80
2018-12-20T23:13:04.814Z,3.60
2018-12-20T23:15:48.265Z,5.50
2018-12-20T23:18:36.130Z,9.98
2018-12-20T23:21:07.057Z,4.90
2018-12-20T23:23:36.878Z,3.35
2018-12-20T23:26:05.797Z,7.67
2018-12-20T23:28:34.682Z,4.05
2018-12-20T23:31:04.523Z,5.58
2018-12-20T23:33:34.195Z,4.50
2018-12-20T23:36:05.191Z,4.90
2018-12-20T23:38:34.169Z,6.30
2018-12-20T23:41:02.902Z,4.62
2018-12-20T23:43:37.182Z,6.55
2018-12-20T23:46:06.023Z,3.72
2018-12-20T23:48:45.166Z,4.85
2018-12-20T23:51:15.966Z,4.35
2018-12-20T23:53:47.638Z,5.28
2018-12-20T23:56:18.442Z,4.20
2018-12-20T23:58:48.082Z,4.97
